createdAt,value
2018-04-26T00:03:12.164Z,10.91
2018-04-26T00:08:03.158Z,10.86
2018-04-26T00:12:55.106Z,10.79
2018-04-26T00:17:46.887Z,10.85
2018-04-26T00:22:37.878Z,10.81
2018-04-26T00:27:28.952Z,10.75
2018-04-26T00:32:20.003Z,10.79
2018-04-26T00:37:11.820Z,10.91
2018-04-26T00:42:02.815Z,10.80
2018-04-26T00:46:53.856Z,10.65
2018-04-26T00:51:59.482Z,10.45
2018-04-26T00:56:50.508Z,10.19
2018-04-26T01:01:41.555Z,9.99
2018-04-26T01:06:32.573Z,9.92
2018-04-26T01:11:23.598Z,9.86
2018-04-26T01:16:14.644Z,9.86
2018-04-26T01:21:05.692Z,9.77
2018-04-26T01:25:56.788Z,9.68
2018-04-26T01:30:47.807Z,9.59
2018-04-26T01:35:38.812Z,9.51
2018-04-26T01:40:29.840Z,9.46
2018-04-26T01:45:20.864Z,9.38
2018-04-26T01:50:12.033Z,9.33
2018-04-26T01:55:03.054Z,9.26
2018-04-26T01:59:54.059Z,9.19
2018-04-26T02:04:45.068Z,9.12
2018-04-26T02:09:36.193Z,9.07
2018-04-26T02:14:27.287Z,9.04
2018-04-26T02:19:18.309Z,8.97
2018-04-26T02:24:09.313Z,8.92
2018-04-26T02:29:01.087Z,8.89
2018-04-26T02:33:52.109Z,8.90
2018-04-26T02:38:43.099Z,8.85
2018-04-26T02:43:34.839Z,8.83
2018-04-26T02:48:26.734Z,8.83
2018-04-26T02:53:17.847Z,8.87
2018-04-26T02:58:08.864Z,8.90
2018-04-26T03:02:59.852Z,8.97
2018-04-26T03:07:51.618Z,8.98
2018-04-26T03:12:42.702Z,8.91
2018-04-26T03:17:33.722Z,8.89
2018-04-26T03:22:24.736Z,8.87
2018-04-26T03:27:15.751Z,8.86
2018-04-26T03:32:06.799Z,8.86
2018-04-26T03:36:58.602Z,8.87
2018-04-26T03:41:49.748Z,8.84
2018-04-26T03:46:40.763Z,8.96
2018-04-26T03:51:31.813Z,9.07
2018-04-26T03:56:22.849Z,9.19
2018-04-26T04:01:32.713Z,9.25
2018-04-26T04:06:24.499Z,9.26
2018-04-26T04:11:15.517Z,9.28
2018-04-26T04:16:06.596Z,9.20
2018-04-26T04:20:58.356Z,9.12
2018-04-26T04:25:50.104Z,9.15
2018-04-26T04:30:41.183Z,9.25
2018-04-26T04:35:32.220Z,9.26
2018-04-26T04:40:23.995Z,9.28
2018-04-26T04:45:15.033Z,9.26
2018-04-26T04:50:06.259Z,9.31
2018-04-26T04:54:57.296Z,9.34
2018-04-26T04:59:48.325Z,9.39
2018-04-26T05:04:39.331Z,9.46
2018-04-26T05:09:30.431Z,9.56
2018-04-26T05:14:21.542Z,9.69
2018-04-26T05:19:13.290Z,9.83
2018-04-26T05:24:04.307Z,9.87
2018-04-26T05:28:55.397Z,9.81
2018-04-26T05:33:46.501Z,9.80
2018-04-26T05:38:37.601Z,9.78
2018-04-26T05:43:28.650Z,9.77
2018-04-26T05:48:19.655Z,9.84
2018-04-26T05:53:10.651Z,9.95
2018-04-26T05:58:01.791Z,10.13
2018-04-26T06:02:52.841Z,10.25
2018-04-26T06:07:44.078Z,10.33
2018-04-26T06:12:35.094Z,10.42
2018-04-26T06:17:26.096Z,10.44
2018-04-26T06:22:17.189Z,10.49
2018-04-26T06:27:09.054Z,10.54
2018-04-26T06:32:00.085Z,10.59
2018-04-26T06:36:51.243Z,10.73
2018-04-26T06:41:42.211Z,10.90
2018-04-26T06:46:33.256Z,11.01
2018-04-26T06:51:24.257Z,11.09
2018-04-26T06:56:15.297Z,11.16
2018-04-26T07:01:06.346Z,11.16
2018-04-26T07:05:57.376Z,11.09
2018-04-26T07:10:48.378Z,11.11
2018-04-26T07:15:39.395Z,11.03
2018-04-26T07:20:30.430Z,11.00
2018-04-26T07:25:21.497Z,10.84
2018-04-26T07:30:13.322Z,10.74
2018-04-26T07:35:04.355Z,10.68
2018-04-26T07:39:56.240Z,10.91
2018-04-26T07:44:47.321Z,11.48
2018-04-26T07:49:38.463Z,12.33
2018-04-26T07:54:30.227Z,12.22
2018-04-26T07:59:21.277Z,12.13
2018-04-26T08:04:12.290Z,12.22
2018-04-26T08:09:03.378Z,12.54
2018-04-26T08:13:54.423Z,12.76
2018-04-26T08:18:45.432Z,12.74
2018-04-26T08:23:36.508Z,13.24
2018-04-26T08:28:28.455Z,13.07
2018-04-26T08:33:20.194Z,12.64
2018-04-26T08:38:11.388Z,12.49
2018-04-26T08:43:02.445Z,12.39
2018-04-26T08:47:53.590Z,12.08
2018-04-26T08:52:45.391Z,11.67
2018-04-26T08:57:36.484Z,11.92
2018-04-26T09:02:27.553Z,12.47
2018-04-26T09:07:18.644Z,12.83
2018-04-26T09:12:09.655Z,12.71
2018-04-26T09:17:00.738Z,11.51
2018-04-26T09:21:51.839Z,10.59
2018-04-26T09:26:42.941Z,10.16
2018-04-26T09:31:33.997Z,10.02
2018-04-26T09:36:25.059Z,10.05
2018-04-26T09:41:16.927Z,9.95
2018-04-26T09:46:07.945Z,9.88
2018-04-26T09:50:58.952Z,9.83
2018-04-26T09:55:50.709Z,10.02
2018-04-26T10:00:41.761Z,10.15
2018-04-26T10:05:38.887Z,10.21
2018-04-26T10:10:29.887Z,10.79
2018-04-26T10:15:21.972Z,11.48
2018-04-26T10:20:12.998Z,12.06
2018-04-26T10:25:04.072Z,12.36
2018-04-26T10:29:55.084Z,12.96
2018-04-26T10:34:46.148Z,13.52
2018-04-26T10:39:37.215Z,13.47
2018-04-26T10:44:28.336Z,13.36
2018-04-26T10:49:19.344Z,13.34
2018-04-26T10:54:10.376Z,13.03
2018-04-26T10:59:01.419Z,12.84
2018-04-26T11:03:52.417Z,12.62
2018-04-26T11:08:43.432Z,12.46
2018-04-26T11:13:34.515Z,13.16
2018-04-26T11:18:26.355Z,13.59
2018-04-26T11:23:18.156Z,14.22
2018-04-26T11:28:09.171Z,14.77
2018-04-26T11:33:00.193Z,15.53
2018-04-26T11:37:51.243Z,15.41
2018-04-26T11:42:42.319Z,14.91
2018-04-26T11:47:33.534Z,15.14
2018-04-26T11:52:25.414Z,14.81
2018-04-26T11:57:16.411Z,14.68
2018-04-26T12:02:07.476Z,15.44
2018-04-26T12:06:58.531Z,15.82
2018-04-26T12:11:49.578Z,15.63
2018-04-26T12:16:40.624Z,15.37
2018-04-26T12:21:31.748Z,14.95
2018-04-26T12:26:22.785Z,14.82
2018-04-26T12:31:13.880Z,14.87
2018-04-26T12:36:04.893Z,14.91
2018-04-26T12:40:56.731Z,14.90
2018-04-26T12:45:48.526Z,14.89
2018-04-26T12:50:39.656Z,14.88
2018-04-26T12:55:30.798Z,14.87
2018-04-26T13:00:21.859Z,14.77
2018-04-26T13:05:13.663Z,14.49
2018-04-26T13:10:04.677Z,14.12
2018-04-26T13:14:55.867Z,13.72
2018-04-26T13:19:46.928Z,13.00
2018-04-26T13:24:37.932Z,13.51
2018-04-26T13:29:28.984Z,13.98
2018-04-26T13:34:20.010Z,14.56
2018-04-26T13:39:11.050Z,15.08
2018-04-26T13:44:02.831Z,15.40
2018-04-26T13:48:53.878Z,15.71
2018-04-26T13:53:44.907Z,15.64
2018-04-26T13:58:35.911Z,15.82
2018-04-26T14:03:27.028Z,16.10
2018-04-26T14:08:18.045Z,15.89
2018-04-26T14:13:09.076Z,16.17
2018-04-26T14:18:00.071Z,16.50
2018-04-26T14:22:51.126Z,16.30
2018-04-26T14:27:42.162Z,16.43
2018-04-26T14:32:33.163Z,16.31
2018-04-26T14:37:24.423Z,16.47
2018-04-26T14:42:15.384Z,16.11
2018-04-26T14:47:06.470Z,16.10
2018-04-26T14:51:57.640Z,15.94
2018-04-26T14:56:48.675Z,15.60
2018-04-26T15:01:39.982Z,15.44
2018-04-26T15:06:31.915Z,15.18
2018-04-26T15:11:23.690Z,14.99
2018-04-26T15:16:14.731Z,14.79
2018-04-26T15:21:05.771Z,14.67
2018-04-26T15:25:56.823Z,14.74
2018-04-26T15:30:48.579Z,14.96
2018-04-26T15:35:40.388Z,15.08
2018-04-26T15:40:31.469Z,15.16
2018-04-26T15:45:22.500Z,15.20
2018-04-26T15:50:13.602Z,15.07
2018-04-26T15:55:23.304Z,15.13
2018-04-26T16:00:33.292Z,15.14
2018-04-26T16:05:43.079Z,15.13
2018-04-26T16:10:59.760Z,15.05
2018-04-26T16:16:12.671Z,14.84
2018-04-26T16:21:28.880Z,14.85
2018-04-26T16:26:38.894Z,14.51
2018-04-26T16:37:42.794Z,14.42
2018-04-26T16:42:34.625Z,14.27
2018-04-26T16:47:26.413Z,14.08
2018-04-26T16:52:17.465Z,13.96
2018-04-26T16:57:10.004Z,13.95
2018-04-26T17:02:01.110Z,14.08
2018-04-26T17:06:52.183Z,14.07
2018-04-26T17:11:43.215Z,14.01
2018-04-26T17:16:34.277Z,13.80
2018-04-26T17:21:25.427Z,13.73
2018-04-26T17:26:16.504Z,13.75
2018-04-26T17:31:08.344Z,13.56
2018-04-26T17:36:00.185Z,13.47
2018-04-26T17:40:51.235Z,13.46
2018-04-26T17:45:42.341Z,13.27
2018-04-26T17:50:33.352Z,13.07
2018-04-26T17:55:25.302Z,12.89
2018-04-26T18:00:16.373Z,12.85
2018-04-26T18:05:07.530Z,12.76
2018-04-26T18:09:58.551Z,12.70
2018-04-26T18:14:50.585Z,12.50
2018-04-26T18:19:41.778Z,12.54
2018-04-26T18:24:32.810Z,12.35
2018-04-26T18:29:23.928Z,12.41
2018-04-26T18:34:16.963Z,12.27
2018-04-26T18:39:05.988Z,12.26
2018-04-26T18:43:57.048Z,12.24
2018-04-26T18:48:48.085Z,12.16
2018-04-26T18:53:39.915Z,12.13
2018-04-26T18:58:30.949Z,12.06
2018-04-26T19:03:22.754Z,12.08
2018-04-26T19:08:13.747Z,12.12
2018-04-26T19:13:04.768Z,12.05
2018-04-26T19:17:55.792Z,11.97
2018-04-26T19:22:46.868Z,11.75
2018-04-26T19:27:37.887Z,11.50
2018-04-26T19:32:28.900Z,11.48
2018-04-26T19:37:19.988Z,11.49
2018-04-26T19:42:11.048Z,11.33
2018-04-26T19:47:02.203Z,11.25
2018-04-26T19:51:53.960Z,11.25
2018-04-26T19:56:52.048Z,11.03
2018-04-26T20:01:43.124Z,10.98
2018-04-26T20:06:34.120Z,10.77
2018-04-26T20:11:25.281Z,10.61
2018-04-26T20:16:16.398Z,10.56
2018-04-26T20:21:07.540Z,10.57
2018-04-26T20:25:59.273Z,10.52
2018-04-26T20:30:50.351Z,10.53
2018-04-26T20:35:41.424Z,10.62
2018-04-26T20:40:32.559Z,10.66
2018-04-26T20:45:23.577Z,10.72
2018-04-26T20:50:15.422Z,10.81
2018-04-26T20:55:06.496Z,10.82
2018-04-26T20:59:57.532Z,10.76
2018-04-26T21:04:48.547Z,10.74
2018-04-26T21:09:39.560Z,10.79
2018-04-26T21:14:30.696Z,10.72
2018-04-26T21:19:21.794Z,10.65
2018-04-26T21:24:12.867Z,10.70
2018-04-26T21:29:03.884Z,10.78
2018-04-26T21:33:55.454Z,10.70
2018-04-26T21:38:47.257Z,10.67
2018-04-26T21:43:38.291Z,10.53
2018-04-26T21:48:29.313Z,10.54
2018-04-26T21:53:26.498Z,10.60
2018-04-26T21:58:23.677Z,10.67
2018-04-26T22:03:17.620Z,10.34
2018-04-26T22:08:08.653Z,10.28
2018-04-26T22:12:59.665Z,10.14
2018-04-26T22:17:50.736Z,10.00
2018-04-26T22:22:41.770Z,10.08
2018-04-26T22:27:32.845Z,10.14
2018-04-26T22:32:23.865Z,10.16
2018-04-26T22:37:14.871Z,10.14
2018-04-26T22:42:05.932Z,10.15
2018-04-26T22:46:56.999Z,10.11
2018-04-26T22:51:48.024Z,10.14
2018-04-26T22:56:39.039Z,9.93
2018-04-26T23:01:30.904Z,9.77
2018-04-26T23:06:22.006Z,9.65
2018-04-26T23:11:13.760Z,9.57
2018-04-26T23:16:04.771Z,9.48
2018-04-26T23:20:56.585Z,9.52
2018-04-26T23:25:47.584Z,9.42
2018-04-26T23:30:38.595Z,9.34
2018-04-26T23:35:29.613Z,9.31
2018-04-26T23:40:20.826Z,9.22
2018-04-26T23:45:11.915Z,9.34
2018-04-26T23:50:03.651Z,9.55
2018-04-26T23:54:55.487Z,9.70
2018-04-26T23:59:46.496Z,9.81
